sensor_id;sensor_type;location;lat;lon;timestamp;temperature;humidity
10089;DHT22;51898;49.864;8.550;2023-03-12T00:00:06;-1.20;79.80
10089;DHT22;51898;49.864;8.550;2023-03-12T00:03:10;-1.10;79.90
10089;DHT22;51898;49.864;8.550;2023-03-12T00:06:12;-1.20;79.70
10089;DHT22;51898;49.864;8.550;2023-03-12T00:09:14;-1.10;79.70
10089;DHT22;51898;49.864;8.550;2023-03-12T00:12:17;-1.10;79.30
10089;DHT22;51898;49.864;8.550;2023-03-12T00:15:19;-1.10;79.20
10089;DHT22;51898;49.864;8.550;2023-03-12T00:18:20;-1.10;79.10
10089;DHT22;51898;49.864;8.550;2023-03-12T00:21:22;-1.10;78.90
10089;DHT22;51898;49.864;8.550;2023-03-12T00:24:24;-1.00;78.60
10089;DHT22;51898;49.864;8.550;2023-03-12T00:27:26;-1.10;78.60
10089;DHT22;51898;49.864;8.550;2023-03-12T00:30:28;-1.10;78.60
10089;DHT22;51898;49.864;8.550;2023-03-12T00:33:30;-1.10;78.60
10089;DHT22;51898;49.864;8.550;2023-03-12T00:36:32;-1.10;78.30
10089;DHT22;51898;49.864;8.550;2023-03-12T00:39:34;-1.10;78.50
10089;DHT22;51898;49.864;8.550;2023-03-12T00:42:36;-1.20;78.40
10089;DHT22;51898;49.864;8.550;2023-03-12T00:45:38;-1.10;78.60
10089;DHT22;51898;49.864;8.550;2023-03-12T00:48:40;-1.10;79.00
10089;DHT22;51898;49.864;8.550;2023-03-12T00:51:42;-1.10;78.90
10089;DHT22;51898;49.864;8.550;2023-03-12T00:54:44;-1.00;78.50
10089;DHT22;51898;49.864;8.550;2023-03-12T00:57:45;-1.00;78.50
10089;DHT22;51898;49.864;8.550;2023-03-12T01:00:47;-0.90;78.60
10089;DHT22;51898;49.864;8.550;2023-03-12T01:03:49;-0.90;78.80
10089;DHT22;51898;49.864;8.550;2023-03-12T01:06:54;-0.80;78.90
10089;DHT22;51898;49.864;8.550;2023-03-12T01:09:56;-0.90;79.10
10089;DHT22;51898;49.864;8.550;2023-03-12T01:12:57;-0.90;79.30
10089;DHT22;51898;49.864;8.550;2023-03-12T01:15:59;-0.90;79.30
10089;DHT22;51898;49.864;8.550;2023-03-12T01:19:02;-0.90;79.30
10089;DHT22;51898;49.864;8.550;2023-03-12T01:22:04;-0.80;79.30
10089;DHT22;51898;49.864;8.550;2023-03-12T01:25:06;-0.90;79.40
10089;DHT22;51898;49.864;8.550;2023-03-12T01:28:08;-0.90;79.40
10089;DHT22;51898;49.864;8.550;2023-03-12T01:31:15;-0.90;79.60
10089;DHT22;51898;49.864;8.550;2023-03-12T01:34:17;-1.00;79.50
10089;DHT22;51898;49.864;8.550;2023-03-12T01:37:18;-1.10;79.80
10089;DHT22;51898;49.864;8.550;2023-03-12T01:40:22;-1.10;80.00
10089;DHT22;51898;49.864;8.550;2023-03-12T01:43:32;-1.10;80.40
10089;DHT22;51898;49.864;8.550;2023-03-12T01:46:39;-1.20;80.40
10089;DHT22;51898;49.864;8.550;2023-03-12T01:49:44;-1.20;80.50
10089;DHT22;51898;49.864;8.550;2023-03-12T01:52:46;-1.10;80.50
10089;DHT22;51898;49.864;8.550;2023-03-12T01:55:49;-1.10;80.70
10089;DHT22;51898;49.864;8.550;2023-03-12T01:58:54;-1.00;80.30
10089;DHT22;51898;49.864;8.550;2023-03-12T02:01:57;-0.90;79.90
10089;DHT22;51898;49.864;8.550;2023-03-12T02:05:06;-0.90;79.90
10089;DHT22;51898;49.864;8.550;2023-03-12T02:08:10;-0.80;80.00
10089;DHT22;51898;49.864;8.550;2023-03-12T02:11:12;-0.80;79.80
10089;DHT22;51898;49.864;8.550;2023-03-12T02:14:14;-0.70;79.60
10089;DHT22;51898;49.864;8.550;2023-03-12T02:17:16;-0.60;79.60
10089;DHT22;51898;49.864;8.550;2023-03-12T02:23:37;-0.60;79.40
10089;DHT22;51898;49.864;8.550;2023-03-12T02:26:41;-0.50;79.30
10089;DHT22;51898;49.864;8.550;2023-03-12T02:29:44;-0.40;79.40
10089;DHT22;51898;49.864;8.550;2023-03-12T02:32:47;-0.40;79.30
10089;DHT22;51898;49.864;8.550;2023-03-12T02:35:51;-0.40;79.30
10089;DHT22;51898;49.864;8.550;2023-03-12T02:38:53;-0.40;79.30
10089;DHT22;51898;49.864;8.550;2023-03-12T02:41:56;-0.40;79.10
10089;DHT22;51898;49.864;8.550;2023-03-12T02:44:59;-0.40;79.30
10089;DHT22;51898;49.864;8.550;2023-03-12T02:48:02;-0.40;79.40
10089;DHT22;51898;49.864;8.550;2023-03-12T02:51:05;-0.50;79.40
10089;DHT22;51898;49.864;8.550;2023-03-12T02:54:07;-0.50;79.80
10089;DHT22;51898;49.864;8.550;2023-03-12T02:57:08;-0.50;79.80
10089;DHT22;51898;49.864;8.550;2023-03-12T03:00:11;-0.40;79.60
10089;DHT22;51898;49.864;8.550;2023-03-12T03:03:14;-0.40;79.40
10089;DHT22;51898;49.864;8.550;2023-03-12T03:06:16;-0.30;79.40
10089;DHT22;51898;49.864;8.550;2023-03-12T03:09:17;-0.30;79.10
10089;DHT22;51898;49.864;8.550;2023-03-12T03:12:19;-0.30;79.70
10089;DHT22;51898;49.864;8.550;2023-03-12T03:15:23;-0.30;80.30
10089;DHT22;51898;49.864;8.550;2023-03-12T03:18:25;-0.30;80.80
10089;DHT22;51898;49.864;8.550;2023-03-12T03:21:26;-0.30;81.20
10089;DHT22;51898;49.864;8.550;2023-03-12T03:24:28;-0.30;81.10
10089;DHT22;51898;49.864;8.550;2023-03-12T03:27:30;-0.40;81.40
10089;DHT22;51898;49.864;8.550;2023-03-12T03:30:31;-0.50;82.10
10089;DHT22;51898;49.864;8.550;2023-03-12T03:33:35;-0.60;83.40
10089;DHT22;51898;49.864;8.550;2023-03-12T03:36:37;-0.70;83.90
10089;DHT22;51898;49.864;8.550;2023-03-12T03:39:38;-0.60;84.30
10089;DHT22;51898;49.864;8.550;2023-03-12T03:42:40;-0.60;84.60
10089;DHT22;51898;49.864;8.550;2023-03-12T03:45:42;-0.60;84.50
10089;DHT22;51898;49.864;8.550;2023-03-12T03:48:45;-0.60;84.50
10089;DHT22;51898;49.864;8.550;2023-03-12T03:51:46;-0.60;84.60
10089;DHT22;51898;49.864;8.550;2023-03-12T03:54:48;-0.70;84.80
10089;DHT22;51898;49.864;8.550;2023-03-12T03:57:49;-0.60;84.90
10089;DHT22;51898;49.864;8.550;2023-03-12T04:00:53;-0.60;84.70
10089;DHT22;51898;49.864;8.550;2023-03-12T04:03:54;-0.60;83.80
10089;DHT22;51898;49.864;8.550;2023-03-12T04:06:56;-0.60;83.50
10089;DHT22;51898;49.864;8.550;2023-03-12T04:09:58;-0.60;83.30
10089;DHT22;51898;49.864;8.550;2023-03-12T04:12:59;-0.60;83.10
10089;DHT22;51898;49.864;8.550;2023-03-12T04:16:01;-0.60;83.50
10089;DHT22;51898;49.864;8.550;2023-03-12T04:19:03;-0.50;83.60
10089;DHT22;51898;49.864;8.550;2023-03-12T04:22:05;-0.40;83.10
10089;DHT22;51898;49.864;8.550;2023-03-12T04:25:07;-0.40;83.00
10089;DHT22;51898;49.864;8.550;2023-03-12T04:28:09;-0.30;82.60
10089;DHT22;51898;49.864;8.550;2023-03-12T04:31:11;-0.20;82.30
10089;DHT22;51898;49.864;8.550;2023-03-12T04:34:13;-0.20;81.40
10089;DHT22;51898;49.864;8.550;2023-03-12T04:37:15;-0.20;81.60
10089;DHT22;51898;49.864;8.550;2023-03-12T04:40:17;-0.10;81.70
10089;DHT22;51898;49.864;8.550;2023-03-12T04:43:19;0.00;81.50
10089;DHT22;51898;49.864;8.550;2023-03-12T04:46:21;0.00;81.30
10089;DHT22;51898;49.864;8.550;2023-03-12T04:49:23;0.00;81.20
10089;DHT22;51898;49.864;8.550;2023-03-12T04:52:25;0.00;81.30
10089;DHT22;51898;49.864;8.550;2023-03-12T04:55:27;0.00;81.40
10089;DHT22;51898;49.864;8.550;2023-03-12T04:58:29;0.00;80.90
10089;DHT22;51898;49.864;8.550;2023-03-12T05:01:32;0.00;80.60
10089;DHT22;51898;49.864;8.550;2023-03-12T05:04:34;0.00;80.40
10089;DHT22;51898;49.864;8.550;2023-03-12T05:07:35;0.00;80.10
10089;DHT22;51898;49.864;8.550;2023-03-12T05:10:37;0.00;79.70
10089;DHT22;51898;49.864;8.550;2023-03-12T05:13:39;0.00;80.00
10089;DHT22;51898;49.864;8.550;2023-03-12T05:16:41;0.00;79.80
10089;DHT22;51898;49.864;8.550;2023-03-12T05:19:43;0.00;79.10
10089;DHT22;51898;49.864;8.550;2023-03-12T05:22:44;0.00;79.50
10089;DHT22;51898;49.864;8.550;2023-03-12T05:25:46;0.10;79.50
10089;DHT22;51898;49.864;8.550;2023-03-12T05:28:48;0.10;78.90
10089;DHT22;51898;49.864;8.550;2023-03-12T05:31:49;0.20;78.40
10089;DHT22;51898;49.864;8.550;2023-03-12T05:34:51;0.30;78.10
10089;DHT22;51898;49.864;8.550;2023-03-12T05:37:53;0.30;77.80
10089;DHT22;51898;49.864;8.550;2023-03-12T05:40:56;0.40;77.80
10089;DHT22;51898;49.864;8.550;2023-03-12T05:43:59;0.40;77.70
10089;DHT22;51898;49.864;8.550;2023-03-12T05:47:01;0.50;77.10
10089;DHT22;51898;49.864;8.550;2023-03-12T05:50:03;0.50;77.00
10089;DHT22;51898;49.864;8.550;2023-03-12T05:53:04;0.50;76.90
10089;DHT22;51898;49.864;8.550;2023-03-12T05:56:09;0.60;77.10
10089;DHT22;51898;49.864;8.550;2023-03-12T05:59:11;0.60;79.10
10089;DHT22;51898;49.864;8.550;2023-03-12T06:02:12;0.60;80.40
10089;DHT22;51898;49.864;8.550;2023-03-12T06:05:14;0.50;81.30
10089;DHT22;51898;49.864;8.550;2023-03-12T06:08:16;0.50;81.70
10089;DHT22;51898;49.864;8.550;2023-03-12T06:11:17;0.60;81.50
10089;DHT22;51898;49.864;8.550;2023-03-12T06:14:19;0.60;80.40
10089;DHT22;51898;49.864;8.550;2023-03-12T06:17:21;0.60;79.70
10089;DHT22;51898;49.864;8.550;2023-03-12T06:20:22;0.60;79.10
10089;DHT22;51898;49.864;8.550;2023-03-12T06:23:24;0.60;78.70
10089;DHT22;51898;49.864;8.550;2023-03-12T06:26:27;0.70;78.10
10089;DHT22;51898;49.864;8.550;2023-03-12T06:29:29;0.70;77.70
10089;DHT22;51898;49.864;8.550;2023-03-12T06:32:30;0.70;77.50
10089;DHT22;51898;49.864;8.550;2023-03-12T06:35:33;0.70;77.90
10089;DHT22;51898;49.864;8.550;2023-03-12T06:38:36;0.80;78.40
10089;DHT22;51898;49.864;8.550;2023-03-12T06:41:38;0.70;78.80
10089;DHT22;51898;49.864;8.550;2023-03-12T06:44:39;0.80;78.90
10089;DHT22;51898;49.864;8.550;2023-03-12T06:47:41;0.90;79.00
10089;DHT22;51898;49.864;8.550;2023-03-12T06:50:42;0.90;79.00
10089;DHT22;51898;49.864;8.550;2023-03-12T06:53:44;0.90;78.90
10089;DHT22;51898;49.864;8.550;2023-03-12T06:56:46;0.90;79.50
10089;DHT22;51898;49.864;8.550;2023-03-12T06:59:48;0.90;80.70
10089;DHT22;51898;49.864;8.550;2023-03-12T07:02:51;1.00;81.90
10089;DHT22;51898;49.864;8.550;2023-03-12T07:05:54;1.00;83.20
10089;DHT22;51898;49.864;8.550;2023-03-12T07:08:56;1.00;83.60
10089;DHT22;51898;49.864;8.550;2023-03-12T07:11:58;1.10;84.30
10089;DHT22;51898;49.864;8.550;2023-03-12T07:14:59;1.10;84.40
10089;DHT22;51898;49.864;8.550;2023-03-12T07:18:06;1.10;85.30
10089;DHT22;51898;49.864;8.550;2023-03-12T07:21:08;1.10;86.10
10089;DHT22;51898;49.864;8.550;2023-03-12T07:24:10;1.20;86.80
10089;DHT22;51898;49.864;8.550;2023-03-12T07:27:11;1.20;87.60
10089;DHT22;51898;49.864;8.550;2023-03-12T07:30:13;1.30;87.80
10089;DHT22;51898;49.864;8.550;2023-03-12T07:33:19;1.40;88.40
10089;DHT22;51898;49.864;8.550;2023-03-12T07:36:21;1.40;88.80
10089;DHT22;51898;49.864;8.550;2023-03-12T07:39:24;1.50;89.40
10089;DHT22;51898;49.864;8.550;2023-03-12T07:42:26;1.50;90.00
10089;DHT22;51898;49.864;8.550;2023-03-12T07:45:28;1.50;90.70
10089;DHT22;51898;49.864;8.550;2023-03-12T07:48:30;1.60;91.30
10089;DHT22;51898;49.864;8.550;2023-03-12T07:51:31;1.70;91.50
10089;DHT22;51898;49.864;8.550;2023-03-12T07:54:33;1.80;91.30
10089;DHT22;51898;49.864;8.550;2023-03-12T07:57:35;1.90;91.50
10089;DHT22;51898;49.864;8.550;2023-03-12T08:00:36;1.90;91.80
10089;DHT22;51898;49.864;8.550;2023-03-12T08:03:38;2.00;91.90
10089;DHT22;51898;49.864;8.550;2023-03-12T08:06:40;2.10;91.70
10089;DHT22;51898;49.864;8.550;2023-03-12T08:09:43;2.00;91.40
10089;DHT22;51898;49.864;8.550;2023-03-12T08:12:45;2.00;91.50
10089;DHT22;51898;49.864;8.550;2023-03-12T08:15:48;2.00;92.10
10089;DHT22;51898;49.864;8.550;2023-03-12T08:18:50;1.90;92.90
10089;DHT22;51898;49.864;8.550;2023-03-12T08:21:52;1.90;93.20
10089;DHT22;51898;49.864;8.550;2023-03-12T08:24:54;2.00;93.50
10089;DHT22;51898;49.864;8.550;2023-03-12T08:27:56;1.90;93.80
10089;DHT22;51898;49.864;8.550;2023-03-12T08:30:59;2.00;94.10
10089;DHT22;51898;49.864;8.550;2023-03-12T08:34:01;1.90;94.40
10089;DHT22;51898;49.864;8.550;2023-03-12T08:37:02;1.90;94.50
10089;DHT22;51898;49.864;8.550;2023-03-12T08:40:04;1.90;94.40
10089;DHT22;51898;49.864;8.550;2023-03-12T08:43:13;1.80;95.00
10089;DHT22;51898;49.864;8.550;2023-03-12T08:46:15;1.90;95.50
10089;DHT22;51898;49.864;8.550;2023-03-12T08:49:16;1.90;95.70
10089;DHT22;51898;49.864;8.550;2023-03-12T08:52:18;2.00;95.20
10089;DHT22;51898;49.864;8.550;2023-03-12T08:55:20;2.00;94.80
10089;DHT22;51898;49.864;8.550;2023-03-12T08:58:23;2.00;94.80
10089;DHT22;51898;49.864;8.550;2023-03-12T09:01:28;2.00;94.80
10089;DHT22;51898;49.864;8.550;2023-03-12T09:04:30;2.20;94.60
10089;DHT22;51898;49.864;8.550;2023-03-12T09:07:32;2.30;94.40
10089;DHT22;51898;49.864;8.550;2023-03-12T09:10:33;2.40;94.20
10089;DHT22;51898;49.864;8.550;2023-03-12T09:13:35;2.50;94.40
10089;DHT22;51898;49.864;8.550;2023-03-12T09:16:57;2.80;94.70
10089;DHT22;51898;49.864;8.550;2023-03-12T09:19:59;3.10;92.70
10089;DHT22;51898;49.864;8.550;2023-03-12T09:23:01;3.20;91.50
10089;DHT22;51898;49.864;8.550;2023-03-12T09:26:02;3.20;91.30
10089;DHT22;51898;49.864;8.550;2023-03-12T09:29:04;3.10;90.70
10089;DHT22;51898;49.864;8.550;2023-03-12T09:32:06;3.00;90.80
10089;DHT22;51898;49.864;8.550;2023-03-12T09:35:08;3.10;91.50
10089;DHT22;51898;49.864;8.550;2023-03-12T09:38:13;3.10;91.50
10089;DHT22;51898;49.864;8.550;2023-03-12T09:41:24;3.10;91.80
10089;DHT22;51898;49.864;8.550;2023-03-12T09:44:35;3.20;91.70
10089;DHT22;51898;49.864;8.550;2023-03-12T09:47:46;3.40;91.20
10089;DHT22;51898;49.864;8.550;2023-03-12T09:50:50;3.60;90.20
10089;DHT22;51898;49.864;8.550;2023-03-12T09:53:55;3.80;89.40
10089;DHT22;51898;49.864;8.550;2023-03-12T09:57:01;3.90;89.00
10089;DHT22;51898;49.864;8.550;2023-03-12T10:00:04;3.90;88.80
10089;DHT22;51898;49.864;8.550;2023-03-12T10:06:22;4.20;88.40
10089;DHT22;51898;49.864;8.550;2023-03-12T10:09:52;4.30;87.60
10089;DHT22;51898;49.864;8.550;2023-03-12T10:13:34;4.30;87.70
10089;DHT22;51898;49.864;8.550;2023-03-12T10:16:48;4.40;88.10
10089;DHT22;51898;49.864;8.550;2023-03-12T10:20:13;4.60;88.00
10089;DHT22;51898;49.864;8.550;2023-03-12T10:26:45;4.80;87.00
10089;DHT22;51898;49.864;8.550;2023-03-12T10:29:49;4.80;86.30
10089;DHT22;51898;49.864;8.550;2023-03-12T10:32:58;5.00;87.30
10089;DHT22;51898;49.864;8.550;2023-03-12T10:36:16;5.10;86.70
10089;DHT22;51898;49.864;8.550;2023-03-12T10:39:19;5.10;85.90
10089;DHT22;51898;49.864;8.550;2023-03-12T10:42:24;5.10;86.10
10089;DHT22;51898;49.864;8.550;2023-03-12T10:45:33;4.90;86.00
10089;DHT22;51898;49.864;8.550;2023-03-12T10:48:36;5.00;86.80
10089;DHT22;51898;49.864;8.550;2023-03-12T10:52:04;5.00;87.20
10089;DHT22;51898;49.864;8.550;2023-03-12T10:58:23;5.00;87.80
10089;DHT22;51898;49.864;8.550;2023-03-12T11:01:29;5.00;88.00
10089;DHT22;51898;49.864;8.550;2023-03-12T11:04:31;5.00;88.50
10089;DHT22;51898;49.864;8.550;2023-03-12T11:07:33;5.20;88.30
10089;DHT22;51898;49.864;8.550;2023-03-12T11:10:44;5.50;88.00
10089;DHT22;51898;49.864;8.550;2023-03-12T11:14:06;5.80;86.80
10089;DHT22;51898;49.864;8.550;2023-03-12T11:17:23;6.00;85.60
10089;DHT22;51898;49.864;8.550;2023-03-12T11:20:27;6.10;84.40
10089;DHT22;51898;49.864;8.550;2023-03-12T11:23:30;6.10;85.00
10089;DHT22;51898;49.864;8.550;2023-03-12T11:29:44;6.30;84.30
10089;DHT22;51898;49.864;8.550;2023-03-12T11:32:49;6.40;84.40
10089;DHT22;51898;49.864;8.550;2023-03-12T11:36:22;6.30;86.20
10089;DHT22;51898;49.864;8.550;2023-03-12T11:46:21;7.00;85.40
10089;DHT22;51898;49.864;8.550;2023-03-12T11:49:59;7.10;85.40
10089;DHT22;51898;49.864;8.550;2023-03-12T11:56:35;7.50;84.60
10089;DHT22;51898;49.864;8.550;2023-03-12T12:00:14;7.60;83.50
10089;DHT22;51898;49.864;8.550;2023-03-12T12:03:43;7.80;83.10
10089;DHT22;51898;49.864;8.550;2023-03-12T12:07:14;7.90;82.90
10089;DHT22;51898;49.864;8.550;2023-03-12T12:14:16;8.30;81.50
10089;DHT22;51898;49.864;8.550;2023-03-12T12:28:03;9.00;80.10
10089;DHT22;51898;49.864;8.550;2023-03-12T12:32:04;9.00;80.10
10089;DHT22;51898;49.864;8.550;2023-03-12T12:35:06;9.10;80.00
10089;DHT22;51898;49.864;8.550;2023-03-12T12:38:32;9.10;79.80
10089;DHT22;51898;49.864;8.550;2023-03-12T12:41:38;9.20;79.40
10089;DHT22;51898;49.864;8.550;2023-03-12T12:44:47;9.40;78.50
10089;DHT22;51898;49.864;8.550;2023-03-12T12:47:54;9.50;78.50
10089;DHT22;51898;49.864;8.550;2023-03-12T12:50:58;9.50;78.40
10089;DHT22;51898;49.864;8.550;2023-03-12T12:54:11;9.40;78.90
10089;DHT22;51898;49.864;8.550;2023-03-12T12:57:30;9.40;79.40
10089;DHT22;51898;49.864;8.550;2023-03-12T13:00:54;9.50;81.20
10089;DHT22;51898;49.864;8.550;2023-03-12T13:04:08;9.70;81.80
10089;DHT22;51898;49.864;8.550;2023-03-12T13:10:39;9.90;80.90
10089;DHT22;51898;49.864;8.550;2023-03-12T13:24:04;10.30;81.00
10089;DHT22;51898;49.864;8.550;2023-03-12T13:27:39;10.40;80.50
10089;DHT22;51898;49.864;8.550;2023-03-12T13:30:49;10.60;80.50
10089;DHT22;51898;49.864;8.550;2023-03-12T13:33:53;10.70;79.80
10089;DHT22;51898;49.864;8.550;2023-03-12T13:37:01;10.70;79.60
10089;DHT22;51898;49.864;8.550;2023-03-12T13:46:39;10.90;79.60
10089;DHT22;51898;49.864;8.550;2023-03-12T13:53:00;11.20;78.00
10089;DHT22;51898;49.864;8.550;2023-03-12T13:56:18;11.40;78.20
10089;DHT22;51898;49.864;8.550;2023-03-12T13:59:23;11.80;77.10
10089;DHT22;51898;49.864;8.550;2023-03-12T14:02:35;12.10;75.80
10089;DHT22;51898;49.864;8.550;2023-03-12T14:06:08;12.30;74.60
10089;DHT22;51898;49.864;8.550;2023-03-12T14:09:40;12.60;72.80
10089;DHT22;51898;49.864;8.550;2023-03-12T14:12:48;12.60;71.50
10089;DHT22;51898;49.864;8.550;2023-03-12T14:16:31;12.30;71.50
10089;DHT22;51898;49.864;8.550;2023-03-12T14:19:43;12.20;71.70
10089;DHT22;51898;49.864;8.550;2023-03-12T14:22:53;12.20;71.00
10089;DHT22;51898;49.864;8.550;2023-03-12T14:25:58;12.10;72.30
10089;DHT22;51898;49.864;8.550;2023-03-12T14:29:28;12.10;72.60
10089;DHT22;51898;49.864;8.550;2023-03-12T14:32:32;12.00;72.60
10089;DHT22;51898;49.864;8.550;2023-03-12T14:35:43;12.00;73.10
10089;DHT22;51898;49.864;8.550;2023-03-12T14:38:47;12.00;73.00
10089;DHT22;51898;49.864;8.550;2023-03-12T14:41:57;11.90;73.30
10089;DHT22;51898;49.864;8.550;2023-03-12T14:48:12;11.90;73.00
10089;DHT22;51898;49.864;8.550;2023-03-12T14:51:19;11.90;73.60
10089;DHT22;51898;49.864;8.550;2023-03-12T14:54:27;11.90;74.10
10089;DHT22;51898;49.864;8.550;2023-03-12T14:57:28;12.00;74.30
10089;DHT22;51898;49.864;8.550;2023-03-12T15:00:30;12.00;73.90
10089;DHT22;51898;49.864;8.550;2023-03-12T15:03:40;12.10;74.20
10089;DHT22;51898;49.864;8.550;2023-03-12T15:06:57;12.10;73.40
10089;DHT22;51898;49.864;8.550;2023-03-12T15:10:05;12.10;72.80
10089;DHT22;51898;49.864;8.550;2023-03-12T15:13:11;12.20;71.90
10089;DHT22;51898;49.864;8.550;2023-03-12T15:16:13;12.30;71.50
10089;DHT22;51898;49.864;8.550;2023-03-12T15:19:19;12.40;71.10
10089;DHT22;51898;49.864;8.550;2023-03-12T15:22:24;12.50;69.40
10089;DHT22;51898;49.864;8.550;2023-03-12T15:25:30;12.70;68.40
10089;DHT22;51898;49.864;8.550;2023-03-12T15:28:32;12.70;67.70
10089;DHT22;51898;49.864;8.550;2023-03-12T15:31:48;12.80;67.80
10089;DHT22;51898;49.864;8.550;2023-03-12T15:34:52;12.70;68.60
10089;DHT22;51898;49.864;8.550;2023-03-12T15:37:54;12.70;69.10
10089;DHT22;51898;49.864;8.550;2023-03-12T15:40:59;12.70;69.70
10089;DHT22;51898;49.864;8.550;2023-03-12T15:44:04;12.60;70.10
10089;DHT22;51898;49.864;8.550;2023-03-12T15:47:10;12.60;70.90
10089;DHT22;51898;49.864;8.550;2023-03-12T15:56:30;12.40;71.70
10089;DHT22;51898;49.864;8.550;2023-03-12T15:59:32;12.30;71.00
10089;DHT22;51898;49.864;8.550;2023-03-12T16:02:36;12.40;70.20
10089;DHT22;51898;49.864;8.550;2023-03-12T16:05:38;12.40;69.80
10089;DHT22;51898;49.864;8.550;2023-03-12T16:08:44;12.40;68.70
10089;DHT22;51898;49.864;8.550;2023-03-12T16:11:47;12.40;68.50
10089;DHT22;51898;49.864;8.550;2023-03-12T16:14:49;12.40;68.30
10089;DHT22;51898;49.864;8.550;2023-03-12T16:17:50;12.30;67.70
10089;DHT22;51898;49.864;8.550;2023-03-12T16:20:52;12.30;67.30
10089;DHT22;51898;49.864;8.550;2023-03-12T16:23:54;12.20;68.00
10089;DHT22;51898;49.864;8.550;2023-03-12T16:26:57;12.20;67.80
10089;DHT22;51898;49.864;8.550;2023-03-12T16:30:01;12.10;67.60
10089;DHT22;51898;49.864;8.550;2023-03-12T16:33:04;12.10;67.80
10089;DHT22;51898;49.864;8.550;2023-03-12T16:36:16;12.10;68.10
10089;DHT22;51898;49.864;8.550;2023-03-12T16:39:19;12.10;68.50
10089;DHT22;51898;49.864;8.550;2023-03-12T16:42:21;12.10;68.50
10089;DHT22;51898;49.864;8.550;2023-03-12T16:45:22;12.00;68.60
10089;DHT22;51898;49.864;8.550;2023-03-12T16:48:24;12.00;68.70
10089;DHT22;51898;49.864;8.550;2023-03-12T16:51:26;12.00;69.30
10089;DHT22;51898;49.864;8.550;2023-03-12T16:54:31;11.90;69.00
10089;DHT22;51898;49.864;8.550;2023-03-12T16:57:35;11.80;69.10
10089;DHT22;51898;49.864;8.550;2023-03-12T17:00:37;11.80;68.70
10089;DHT22;51898;49.864;8.550;2023-03-12T17:03:40;11.70;69.30
10089;DHT22;51898;49.864;8.550;2023-03-12T17:06:44;11.70;70.00
10089;DHT22;51898;49.864;8.550;2023-03-12T17:09:45;11.60;69.70
10089;DHT22;51898;49.864;8.550;2023-03-12T17:12:47;11.60;69.70
10089;DHT22;51898;49.864;8.550;2023-03-12T17:15:50;11.60;68.80
10089;DHT22;51898;49.864;8.550;2023-03-12T17:18:53;11.50;68.60
10089;DHT22;51898;49.864;8.550;2023-03-12T17:21:55;11.50;67.80
10089;DHT22;51898;49.864;8.550;2023-03-12T17:24:56;11.50;68.20
10089;DHT22;51898;49.864;8.550;2023-03-12T17:27:58;11.50;68.40
10089;DHT22;51898;49.864;8.550;2023-03-12T17:31:00;11.50;68.40
10089;DHT22;51898;49.864;8.550;2023-03-12T17:34:02;11.40;69.10
10089;DHT22;51898;49.864;8.550;2023-03-12T17:37:04;11.30;68.70
10089;DHT22;51898;49.864;8.550;2023-03-12T17:40:06;11.30;68.90
10089;DHT22;51898;49.864;8.550;2023-03-12T17:43:09;11.30;68.80
10089;DHT22;51898;49.864;8.550;2023-03-12T17:46:11;11.20;69.40
10089;DHT22;51898;49.864;8.550;2023-03-12T17:49:13;11.20;69.40
10089;DHT22;51898;49.864;8.550;2023-03-12T17:52:14;11.10;69.40
10089;DHT22;51898;49.864;8.550;2023-03-12T17:55:16;11.10;69.30
10089;DHT22;51898;49.864;8.550;2023-03-12T17:58:18;11.10;68.30
10089;DHT22;51898;49.864;8.550;2023-03-12T18:01:20;11.10;68.40
10089;DHT22;51898;49.864;8.550;2023-03-12T18:04:21;11.10;67.80
10089;DHT22;51898;49.864;8.550;2023-03-12T18:07:23;11.10;67.90
10089;DHT22;51898;49.864;8.550;2023-03-12T18:10:25;11.10;68.30
10089;DHT22;51898;49.864;8.550;2023-03-12T18:13:26;11.00;68.30
10089;DHT22;51898;49.864;8.550;2023-03-12T18:16:28;11.10;67.90
10089;DHT22;51898;49.864;8.550;2023-03-12T18:19:29;11.00;68.50
10089;DHT22;51898;49.864;8.550;2023-03-12T18:22:31;11.00;68.60
10089;DHT22;51898;49.864;8.550;2023-03-12T18:25:33;10.90;68.90
10089;DHT22;51898;49.864;8.550;2023-03-12T18:28:34;10.90;69.10
10089;DHT22;51898;49.864;8.550;2023-03-12T18:31:36;10.90;69.00
10089;DHT22;51898;49.864;8.550;2023-03-12T18:34:38;10.80;69.30
10089;DHT22;51898;49.864;8.550;2023-03-12T18:37:42;10.80;69.50
10089;DHT22;51898;49.864;8.550;2023-03-12T18:40:45;10.70;69.40
10089;DHT22;51898;49.864;8.550;2023-03-12T18:43:46;10.70;69.50
10089;DHT22;51898;49.864;8.550;2023-03-12T18:46:48;10.70;69.50
10089;DHT22;51898;49.864;8.550;2023-03-12T18:49:52;10.80;69.70
10089;DHT22;51898;49.864;8.550;2023-03-12T18:52:55;10.70;69.90
10089;DHT22;51898;49.864;8.550;2023-03-12T18:56:03;10.70;70.00
10089;DHT22;51898;49.864;8.550;2023-03-12T18:59:07;10.70;70.40
10089;DHT22;51898;49.864;8.550;2023-03-12T19:02:10;10.70;70.60
10089;DHT22;51898;49.864;8.550;2023-03-12T19:05:12;10.70;70.80
10089;DHT22;51898;49.864;8.550;2023-03-12T19:08:14;10.70;70.90
10089;DHT22;51898;49.864;8.550;2023-03-12T19:11:16;10.70;71.10
10089;DHT22;51898;49.864;8.550;2023-03-12T19:14:18;10.60;71.10
10089;DHT22;51898;49.864;8.550;2023-03-12T19:17:19;10.60;71.20
10089;DHT22;51898;49.864;8.550;2023-03-12T19:20:21;10.60;71.30
10089;DHT22;51898;49.864;8.550;2023-03-12T19:23:23;10.60;71.50
10089;DHT22;51898;49.864;8.550;2023-03-12T19:26:24;10.50;71.80
10089;DHT22;51898;49.864;8.550;2023-03-12T19:29:26;10.50;71.90
10089;DHT22;51898;49.864;8.550;2023-03-12T19:32:28;10.50;71.90
10089;DHT22;51898;49.864;8.550;2023-03-12T19:35:43;10.50;72.00
10089;DHT22;51898;49.864;8.550;2023-03-12T19:38:45;10.50;71.90
10089;DHT22;51898;49.864;8.550;2023-03-12T19:41:46;10.50;71.90
10089;DHT22;51898;49.864;8.550;2023-03-12T19:44:48;10.40;71.90
10089;DHT22;51898;49.864;8.550;2023-03-12T19:47:52;10.40;71.80
10089;DHT22;51898;49.864;8.550;2023-03-12T19:50:53;10.40;71.80
10089;DHT22;51898;49.864;8.550;2023-03-12T19:53:56;10.40;71.50
10089;DHT22;51898;49.864;8.550;2023-03-12T19:56:57;10.40;71.50
10089;DHT22;51898;49.864;8.550;2023-03-12T19:59:59;10.40;71.50
10089;DHT22;51898;49.864;8.550;2023-03-12T20:03:01;10.30;71.60
10089;DHT22;51898;49.864;8.550;2023-03-12T20:06:06;10.30;71.40
10089;DHT22;51898;49.864;8.550;2023-03-12T20:09:08;10.30;71.60
10089;DHT22;51898;49.864;8.550;2023-03-12T20:12:13;10.30;71.70
10089;DHT22;51898;49.864;8.550;2023-03-12T20:15:15;10.20;71.70
10089;DHT22;51898;49.864;8.550;2023-03-12T20:18:16;10.20;71.90
10089;DHT22;51898;49.864;8.550;2023-03-12T20:21:18;10.20;72.00
10089;DHT22;51898;49.864;8.550;2023-03-12T20:24:20;10.20;72.10
10089;DHT22;51898;49.864;8.550;2023-03-12T20:27:21;10.20;72.00
10089;DHT22;51898;49.864;8.550;2023-03-12T20:30:23;10.20;72.10
10089;DHT22;51898;49.864;8.550;2023-03-12T20:33:25;10.20;72.30
10089;DHT22;51898;49.864;8.550;2023-03-12T20:36:26;10.20;72.30
10089;DHT22;51898;49.864;8.550;2023-03-12T20:39:28;10.20;72.20
10089;DHT22;51898;49.864;8.550;2023-03-12T20:42:30;10.20;72.20
10089;DHT22;51898;49.864;8.550;2023-03-12T20:45:32;10.20;72.40
10089;DHT22;51898;49.864;8.550;2023-03-12T20:48:34;10.20;72.60